Time;durP1;ratioP1;P1;durP2;ratioP2;P2;SDS_P1;SDS_P2;PMS_P1;PMS_P2;Temp;Humidity;BMP_temperature;BMP_pressure;BME280_temperature;BME280_humidity;BME280_pressure;Samples;Min_cycle;Max_cycle;Signal;HPM_P1;HPM_P2
2021/11/22 00:01:20;;;;;;;;;10.25;9.50;;;;;15.17;51.56;98028.66;4901202;28;105181;-67
2021/11/22 00:03:47;;;;;;;;;9.50;7.00;;;;;15.17;52.05;98028.66;4901604;28;104404;-67
2021/11/22 00:06:14;;;;;;;;;13.00;8.00;;;;;15.18;51.61;98033.03;4905639;28;102934;-67
2021/11/22 00:08:41;;;;;;;;;9.50;7.50;;;;;15.15;51.61;98028.09;4898898;28;104272;-67
2021/11/22 00:11:08;;;;;;;;;10.00;7.50;;;;;15.15;51.54;98040.88;4918586;28;104038;-67
2021/11/22 00:13:35;;;;;;;;;8.25;8.25;;;;;15.14;51.38;98039.22;4899959;28;102583;-67
2021/11/22 00:16:02;;;;;;;;;7.75;6.50;;;;;15.13;51.48;98038.38;4904813;28;102605;-67
2021/11/22 00:18:29;;;;;;;;;8.25;5.75;;;;;15.14;51.79;98044.66;4907996;28;102284;-67
2021/11/22 00:20:56;;;;;;;;;9.25;7.75;;;;;15.13;51.64;98043.81;4901584;28;104230;-67
2021/11/22 00:23:23;;;;;;;;;11.75;8.75;;;;;15.11;51.64;98054.16;4909460;28;102721;-67
2021/11/22 00:25:50;;;;;;;;;8.50;7.75;;;;;15.12;51.46;98053.09;4910910;28;102681;-67
2021/11/22 00:28:17;;;;;;;;;13.50;9.25;;;;;15.11;51.52;98054.16;4904274;28;102578;-67
2021/11/22 00:30:44;;;;;;;;;11.00;8.00;;;;;15.11;51.62;98051.44;4897246;28;104018;-67
2021/11/22 00:33:11;;;;;;;;;10.50;8.00;;;;;15.13;51.46;98057.44;4905171;28;102321;-67
2021/11/22 00:35:39;;;;;;;;;9.75;7.25;;;;;15.12;51.57;98053.09;4909776;28;103546;-67
2021/11/22 00:38:07;;;;;;;;;3.25;3.25;;;;;15.12;51.53;98053.09;4901299;28;104024;-67
2021/11/22 00:40:35;;;;;;;;;11.00;10.00;;;;;15.11;51.45;98054.16;4903200;28;104290;-67
2021/11/22 00:43:02;;;;;;;;;8.75;7.75;;;;;15.11;51.57;98056.03;4903060;28;102503;-67
2021/11/22 00:45:29;;;;;;;;;8.50;6.75;;;;;15.10;51.47;98057.94;4896843;28;102563;-67
2021/11/22 00:47:58;;;;;;;;;8.25;6.50;;;;;15.10;51.63;98066.09;4903393;28;103213;-67
2021/11/22 00:50:26;;;;;;;;;9.75;8.00;;;;;15.09;51.58;98064.44;4901915;28;105249;-67
2021/11/22 00:52:53;;;;;;;;;10.00;8.00;;;;;15.09;51.41;98069.91;4856897;28;104133;-67
2021/11/22 00:55:20;;;;;;;;;11.00;7.50;;;;;15.10;51.66;98063.38;4857926;28;112484;-67
2021/11/22 00:57:47;;;;;;;;;9.00;7.75;;;;;15.08;51.61;98065.50;4891318;28;102810;-67
2021/11/22 01:00:15;;;;;;;;;10.25;6.50;;;;;15.07;51.54;98063.88;4863713;28;104305;-67
2021/11/22 01:02:42;;;;;;;;;7.75;6.25;;;;;15.06;51.87;98062.22;4837661;28;102210;-66
2021/11/22 01:05:09;;;;;;;;;10.75;8.75;;;;;15.06;51.59;98056.78;4853026;28;102340;-67
2021/11/22 01:07:36;;;;;;;;;7.50;6.00;;;;;15.04;51.44;98072.50;4829835;28;102561;-67
2021/11/22 01:10:04;;;;;;;;;7.75;7.00;;;;;15.06;51.30;98062.22;4859600;28;104257;-67
2021/11/22 01:12:32;;;;;;;;;11.00;9.25;;;;;15.06;51.58;98054.06;4869010;28;102618;-67
2021/11/22 01:14:59;;;;;;;;;8.00;6.50;;;;;15.06;51.55;98058.66;4866597;28;103950;-67
2021/11/22 01:17:26;;;;;;;;;10.00;7.25;;;;;15.06;51.58;98064.13;4871965;28;110467;-66
2021/11/22 01:19:54;;;;;;;;;9.00;8.00;;;;;15.06;51.20;98056.78;4869705;28;103986;-67
2021/11/22 01:22:22;;;;;;;;;6.25;5.25;;;;;15.05;51.44;98062.44;4858759;28;102364;-67
2021/11/22 01:24:49;;;;;;;;;9.50;7.50;;;;;15.05;51.44;98060.56;4864683;28;103616;-66
2021/11/22 01:27:36;;;;;;;;;9.50;8.25;;;;;15.05;51.74;98052.41;4870500;28;103162;-67
2021/11/22 01:30:10;;;;;;;;;8.50;7.00;;;;;15.04;51.73;98061.63;4862844;28;104189;-67
2021/11/22 01:32:38;;;;;;;;;6.50;5.75;;;;;15.04;51.45;98069.78;4867779;28;104105;-67
2021/11/22 01:35:05;;;;;;;;;10.25;6.00;;;;;15.03;51.51;98070.88;4864603;28;102646;-67
2021/11/22 01:37:32;;;;;;;;;7.00;6.00;;;;;15.03;51.48;98068.16;4874416;28;103985;-67
2021/11/22 01:39:59;;;;;;;;;8.00;8.00;;;;;15.02;51.40;98062.94;4862549;28;104353;-67
2021/11/22 01:42:26;;;;;;;;;8.00;8.00;;;;;15.01;51.58;98055.84;4860553;28;102476;-67
2021/11/22 01:44:53;;;;;;;;;10.50;8.25;;;;;15.02;51.72;98060.22;4870193;28;102746;-67
2021/11/22 01:47:20;;;;;;;;;8.25;8.00;;;;;15.01;51.59;98059.41;4870857;28;103672;-67
2021/11/22 01:49:47;;;;;;;;;10.00;7.25;;;;;15.00;51.90;98065.06;4861454;28;104010;-66
2021/11/22 01:52:14;;;;;;;;;8.00;7.00;;;;;15.01;51.49;98067.56;4892485;28;105373;-67
2021/11/22 01:54:41;;;;;;;;;6.75;6.25;;;;;15.02;51.47;98071.94;4908633;28;103438;-67
2021/11/22 01:57:08;;;;;;;;;7.00;7.00;;;;;15.02;51.43;98068.41;4905029;28;107142;-67
2021/11/22 01:59:35;;;;;;;;;7.25;7.00;;;;;15.01;51.43;98073.00;4899610;28;104072;-67
2021/11/22 02:02:02;;;;;;;;;10.75;10.50;;;;;15.03;51.54;98070.06;4874314;28;103174;-67
2021/11/22 02:04:30;;;;;;;;;5.25;5.00;;;;;15.02;51.66;98080.13;4839798;28;102975;-67
2021/11/22 02:06:57;;;;;;;;;9.25;7.00;;;;;15.00;51.51;98087.69;4860713;28;102241;-67
2021/11/22 02:09:24;;;;;;;;;6.00;5.50;;;;;15.00;51.45;98082.25;4843587;28;103856;-66
2021/11/22 02:11:51;;;;;;;;;9.25;6.00;;;;;14.99;51.47;98083.34;4891057;28;103073;-67
2021/11/22 02:14:18;;;;;;;;;9.25;6.00;;;;;15.01;51.57;98088.50;4891738;28;102846;-67
2021/11/22 02:16:45;;;;;;;;;8.00;7.00;;;;;15.00;51.46;98093.13;4900876;28;102633;-67
2021/11/22 02:19:12;;;;;;;;;9.75;8.75;;;;;14.99;51.40;98088.78;4892928;28;104290;-67
2021/11/22 02:21:40;;;;;;;;;9.25;8.50;;;;;14.99;51.51;98096.13;4891906;28;102448;-67
2021/11/22 02:24:07;;;;;;;;;7.75;7.50;;;;;14.99;51.54;98096.94;4897708;28;102566;-67
2021/11/22 02:26:36;;;;;;;;;6.50;6.50;;;;;15.00;51.51;98098.56;4896533;28;107474;-67
2021/11/22 02:29:06;;;;;;;;;7.00;7.00;;;;;14.99;51.52;98102.38;4898964;28;104127;-67
2021/11/22 02:31:34;;;;;;;;;10.75;7.00;;;;;15.00;51.40;98093.13;4893205;28;110393;-67
2021/11/22 02:34:02;;;;;;;;;6.75;6.50;;;;;14.98;51.32;98108.91;4892623;28;102557;-66
2021/11/22 02:36:30;;;;;;;;;9.00;8.25;;;;;14.99;51.39;98116.00;4892034;28;102615;-67
2021/11/22 02:38:57;;;;;;;;;7.25;7.00;;;;;14.99;51.46;98110.56;4887948;28;104150;-67
2021/11/22 02:41:24;;;;;;;;;8.75;6.75;;;;;14.98;51.04;98106.19;4899832;28;102662;-67
2021/11/22 02:43:51;;;;;;;;;12.25;9.25;;;;;14.99;51.13;98107.00;4898326;28;104249;-67
2021/11/22 02:46:19;;;;;;;;;8.00;7.00;;;;;14.99;51.47;98105.13;4888662;28;102250;-67
2021/11/22 02:48:46;;;;;;;;;5.00;5.00;;;;;14.99;51.39;98102.38;4898406;28;104200;-67
2021/11/22 02:51:13;;;;;;;;;8.00;8.00;;;;;14.98;51.75;98089.84;4881198;28;102487;-67
2021/11/22 02:53:40;;;;;;;;;5.25;4.25;;;;;14.99;51.54;98104.28;4895202;28;102415;-67
2021/11/22 02:56:07;;;;;;;;;8.00;6.75;;;;;14.93;51.62;98092.47;4894870;28;103114;-67
2021/11/22 02:58:36;;;;;;;;;14.00;7.75;;;;;14.97;51.59;98099.06;4897418;28;104014;-67
2021/11/22 03:01:05;;;;;;;;;12.75;8.50;;;;;14.97;51.67;98099.06;4891316;28;102975;-67
2021/11/22 03:03:33;;;;;;;;;8.00;7.50;;;;;14.97;51.53;98101.78;4898481;28;102718;-66
2021/11/22 03:06:02;;;;;;;;;10.00;7.25;;;;;14.96;51.35;98102.84;4899690;28;102523;-67
2021/11/22 03:08:29;;;;;;;;;8.50;7.50;;;;;14.98;51.61;98100.72;4910946;28;104068;-66
2021/11/22 03:10:56;;;;;;;;;5.25;5.25;;;;;14.98;51.46;98094.44;4901687;28;102510;-67
2021/11/22 03:13:23;;;;;;;;;9.25;8.00;;;;;14.98;51.34;98100.72;4891792;28;102581;-67
2021/11/22 03:15:50;;;;;;;;;7.50;6.75;;;;;14.99;51.42;98107.00;4905628;28;102441;-67
2021/11/22 03:18:17;;;;;;;;;11.25;7.25;;;;;14.97;51.55;98109.13;4901409;28;103931;-67
2021/11/22 03:20:44;;;;;;;;;6.50;5.75;;;;;14.97;51.62;98109.97;4899379;28;102475;-67
2021/11/22 03:23:10;;;;;;;;;5.75;5.00;;;;;14.97;51.62;98109.13;4904666;28;102471;-66
2021/11/22 03:25:37;;;;;;;;;11.00;8.00;;;;;14.97;51.00;98120.00;4898578;28;102594;-67
2021/11/22 03:28:04;;;;;;;;;5.50;5.00;;;;;14.97;51.33;98120.84;4897962;28;103910;-66
2021/11/22 03:30:31;;;;;;;;;7.75;7.00;;;;;14.97;51.24;98114.56;4903703;28;102694;-67
2021/11/22 03:32:58;;;;;;;;;8.00;6.75;;;;;14.96;51.74;98119.19;4908182;28;102325;-66
2021/11/22 03:35:26;;;;;;;;;11.00;8.00;;;;;14.97;51.60;98122.75;4908056;28;102364;-67
2021/11/22 03:37:52;;;;;;;;;7.00;6.00;;;;;14.95;51.23;98122.97;4903481;28;108940;-67
2021/11/22 03:40:19;;;;;;;;;9.25;7.00;;;;;14.96;51.39;98123.81;4899317;28;103503;-67
2021/11/22 03:43:02;;;;;;;;;8.75;7.75;;;;;14.96;51.40;98130.06;4892704;28;103397;-67
2021/11/22 03:45:29;;;;;;;;;6.00;5.25;;;;;14.95;51.34;98136.59;4893385;28;102929;-67
2021/11/22 03:47:56;;;;;;;;;6.50;6.00;;;;;14.96;51.16;98140.13;4909632;28;104242;-67
2021/11/22 03:50:23;;;;;;;;;7.25;6.50;;;;;14.94;51.48;98143.13;4895859;28;102940;-67
2021/11/22 03:52:50;;;;;;;;;7.25;6.75;;;;;14.96;51.28;98143.69;4899956;28;102457;-67
2021/11/22 03:55:17;;;;;;;;;6.50;5.50;;;;;14.98;51.67;98138.00;4900724;28;110389;-67
2021/11/22 03:57:44;;;;;;;;;7.00;6.00;;;;;14.97;51.12;98131.75;4901067;28;104238;-67
2021/11/22 04:00:12;;;;;;;;;6.00;6.00;;;;;14.96;51.60;98145.59;4902980;28;102773;-67
2021/11/22 04:02:39;;;;;;;;;6.25;5.25;;;;;14.96;51.53;98140.13;4900350;28;102787;-66
2021/11/22 04:05:06;;;;;;;;;9.00;7.00;;;;;14.95;51.37;98147.47;4892524;28;102768;-66
2021/11/22 04:07:33;;;;;;;;;7.00;5.25;;;;;14.96;51.42;98156.47;4899144;28;104274;-67
2021/11/22 04:10:00;;;;;;;;;9.75;6.75;;;;;14.96;51.20;98157.31;4895496;28;104081;-67
2021/11/22 04:12:27;;;;;;;;;8.00;6.00;;;;;14.95;51.22;98150.19;4893590;28;102789;-67
2021/11/22 04:14:54;;;;;;;;;7.00;6.50;;;;;14.95;51.62;98155.63;4899041;28;102856;-67
2021/11/22 04:17:22;;;;;;;;;6.75;6.00;;;;;14.95;51.24;98149.41;4898448;28;104221;-67
2021/11/22 04:19:49;;;;;;;;;8.25;7.00;;;;;14.95;51.24;98150.19;4880967;28;105039;-67
2021/11/22 04:22:16;;;;;;;;;10.00;5.00;;;;;14.94;51.09;98154.00;4899547;28;103448;-67
2021/11/22 04:24:43;;;;;;;;;8.25;7.00;;;;;14.95;51.63;98163.00;4911367;28;102692;-67
2021/11/22 04:27:12;;;;;;;;;9.75;8.00;;;;;14.92;51.65;98167.00;4894747;28;104102;-67
2021/11/22 04:29:42;;;;;;;;;8.25;8.00;;;;;14.94;51.23;98166.78;4896268;28;103600;-67
2021/11/22 04:32:09;;;;;;;;;8.25;6.00;;;;;14.95;51.18;98176.63;4894498;28;102529;-67
2021/11/22 04:34:38;;;;;;;;;9.25;8.00;;;;;14.95;50.93;98173.91;4901592;28;105191;-66
2021/11/22 04:37:05;;;;;;;;;9.25;8.00;;;;;14.95;51.56;98173.91;4890910;28;104013;-66
2021/11/22 04:39:33;;;;;;;;;6.50;6.50;;;;;14.96;51.00;98168.19;4903608;28;102425;-66
2021/11/22 04:42:01;;;;;;;;;10.25;6.50;;;;;14.96;51.13;98165.47;4896040;28;104233;-66
2021/11/22 04:44:28;;;;;;;;;11.00;7.50;;;;;14.93;51.74;98174.13;4902799;28;102555;-66
2021/11/22 04:46:57;;;;;;;;;7.50;7.50;;;;;14.96;51.45;98183.69;4901279;28;109241;-67
2021/11/22 04:49:24;;;;;;;;;10.50;8.00;;;;;14.96;51.16;98181.81;4898961;28;102495;-67
2021/11/22 04:51:51;;;;;;;;;7.50;7.00;;;;;14.95;51.00;98182.88;4902058;28;102475;-66
2021/11/22 04:54:18;;;;;;;;;9.50;6.50;;;;;14.95;51.18;98180.13;4895323;28;102469;-66
2021/11/22 04:56:45;;;;;;;;;8.00;7.00;;;;;14.95;51.03;98171.97;4902388;28;104262;-66
2021/11/22 04:59:12;;;;;;;;;9.00;7.00;;;;;14.94;51.56;98183.97;4884603;28;103809;-66
2021/11/22 05:01:39;;;;;;;;;7.75;6.75;;;;;14.94;51.38;98178.50;4907925;28;102604;-66
2021/11/22 05:04:06;;;;;;;;;11.25;8.25;;;;;14.94;51.19;98175.78;4910509;28;102735;-66
2021/11/22 05:06:33;;;;;;;;;9.25;7.00;;;;;14.92;51.07;98180.63;4895412;28;103821;-66
2021/11/22 05:09:00;;;;;;;;;8.00;7.00;;;;;14.92;51.43;98188.78;4925244;28;103028;-66
2021/11/22 05:11:27;;;;;;;;;10.75;7.50;;;;;14.93;51.23;98190.47;4898376;28;104266;-66
2021/11/22 05:13:54;;;;;;;;;10.00;8.00;;;;;14.93;51.19;98192.34;4913010;28;102281;-67
2021/11/22 05:16:21;;;;;;;;;8.25;8.00;;;;;14.92;51.44;98194.25;4903689;28;105121;-67
2021/11/22 05:18:50;;;;;;;;;8.50;5.50;;;;;14.92;51.36;98196.97;4907058;28;102309;-66
2021/11/22 05:21:17;;;;;;;;;7.00;6.00;;;;;14.92;51.32;98199.69;4903734;28;105359;-67
2021/11/22 05:23:44;;;;;;;;;8.25;7.50;;;;;14.92;51.09;98202.41;4910824;28;103852;-67
2021/11/22 05:26:11;;;;;;;;;8.25;8.00;;;;;14.94;51.14;98203.00;4910125;28;104312;-66
2021/11/22 05:28:38;;;;;;;;;8.00;6.25;;;;;14.93;51.25;98204.06;4906987;28;103264;-66
2021/11/22 05:31:05;;;;;;;;;10.50;6.50;;;;;14.93;51.28;98206.78;4910544;28;102210;-66
2021/11/22 05:33:32;;;;;;;;;6.00;6.00;;;;;14.93;51.06;98206.78;4917641;28;103794;-67
2021/11/22 05:35:59;;;;;;;;;8.00;7.00;;;;;14.93;51.38;98200.53;4920928;28;109058;-67
2021/11/22 05:38:26;;;;;;;;;10.00;8.00;;;;;14.92;50.89;98213.31;4911439;28;103581;-67
2021/11/22 05:40:52;;;;;;;;;6.25;6.25;;;;;14.92;50.98;98205.13;4908543;28;102244;-67
2021/11/22 05:43:19;;;;;;;;;8.75;6.00;;;;;14.94;51.43;98219.34;4889668;28;102227;-67
2021/11/22 05:45:46;;;;;;;;;8.50;7.00;;;;;14.97;51.34;98229.75;4897960;28;104075;-66
2021/11/22 05:48:13;;;;;;;;;8.75;7.00;;;;;15.00;51.08;98240.16;4906429;28;112651;-67
2021/11/22 05:50:40;;;;;;;;;8.75;7.00;;;;;15.02;51.04;98226.31;4905969;28;102348;-67
2021/11/22 05:53:07;;;;;;;;;7.00;6.25;;;;;15.04;51.04;98230.44;4897105;28;102613;-66
2021/11/22 05:55:38;;;;;;;;;9.50;7.00;;;;;15.06;51.02;98239.22;4912458;28;104049;-66
2021/11/22 05:58:07;;;;;;;;;8.25;6.50;;;;;15.07;51.22;98235.44;4893739;28;102246;-66
2021/11/22 06:00:34;;;;;;;;;7.00;5.50;;;;;15.10;51.46;98245.00;4905951;28;102221;-67
2021/11/22 06:03:02;;;;;;;;;8.25;7.00;;;;;15.11;51.13;98242.06;4899237;28;102503;-67
2021/11/22 06:05:29;;;;;;;;;13.75;8.75;;;;;15.13;51.14;98250.78;4899757;28;109244;-67
2021/11/22 06:07:56;;;;;;;;;9.00;6.75;;;;;15.15;51.29;98248.69;4908004;28;105466;-67
2021/11/22 06:10:23;;;;;;;;;9.50;8.75;;;;;15.18;51.13;98259.09;4904510;28;102815;-67
2021/11/22 06:12:50;;;;;;;;;11.00;10.75;;;;;15.19;51.15;98258.03;4911291;28;102705;-67
2021/11/22 06:15:17;;;;;;;;;10.00;8.50;;;;;15.21;50.95;98257.78;4908285;28;104157;-67
2021/11/22 06:17:44;;;;;;;;;11.50;9.00;;;;;15.22;50.81;98261.34;4906576;28;103342;-67
2021/11/22 06:20:11;;;;;;;;;8.00;7.00;;;;;15.24;50.79;98273.66;4913642;28;103362;-67
2021/11/22 06:22:38;;;;;;;;;8.00;6.75;;;;;15.25;51.52;98271.75;4902111;28;102813;-66
2021/11/22 06:25:06;;;;;;;;;9.25;9.25;;;;;15.27;51.15;98277.78;4905291;28;104242;-67
2021/11/22 06:27:33;;;;;;;;;8.25;7.00;;;;;15.27;50.73;98288.66;4915729;28;103544;-67
2021/11/22 06:30:00;;;;;;;;;11.00;9.00;;;;;15.28;50.78;98280.28;4909606;28;102449;-67
2021/11/22 06:32:28;;;;;;;;;9.00;6.25;;;;;15.29;51.03;98286.56;4905588;28;102352;-67
2021/11/22 06:34:55;;;;;;;;;5.00;5.00;;;;;15.29;51.11;98303.72;4904141;28;104049;-67
2021/11/22 06:37:23;;;;;;;;;8.00;7.25;;;;;15.30;50.99;98301.84;4904725;28;103892;-67
2021/11/22 06:39:50;;;;;;;;;10.25;9.25;;;;;15.31;50.98;98300.78;4911433;28;103082;-67
2021/11/22 06:42:19;;;;;;;;;7.00;6.00;;;;;15.31;50.76;98298.06;4912835;28;102722;-67
2021/11/22 06:44:47;;;;;;;;;8.25;7.00;;;;;15.32;50.86;98307.84;4907264;28;104150;-67
2021/11/22 06:47:20;;;;;;;;;7.00;7.00;;;;;15.31;50.67;98309.75;4902465;28;111465;-67
2021/11/22 06:49:47;;;;;;;;;8.00;8.00;;;;;15.31;50.87;98312.47;4909860;28;102214;-67
2021/11/22 06:52:16;;;;;;;;;7.50;6.75;;;;;15.33;50.76;98309.53;4917228;28;104887;-67
2021/11/22 06:54:45;;;;;;;;;8.25;7.00;;;;;15.33;50.76;98307.63;4913043;28;104108;-67
2021/11/22 06:57:14;;;;;;;;;7.75;7.00;;;;;15.34;50.83;98317.47;4904543;28;102687;-67
2021/11/22 06:59:42;;;;;;;;;8.50;8.25;;;;;15.35;50.67;98323.75;4911799;28;102527;-67
2021/11/22 07:02:15;;;;;;;;;8.00;7.25;;;;;15.35;50.89;98323.75;4904164;28;102869;-67
2021/11/22 07:04:46;;;;;;;;;15.25;9.25;;;;;15.36;50.74;98330.81;4906667;28;104125;-67
2021/11/22 07:07:18;;;;;;;;;8.75;6.50;;;;;15.35;50.75;98324.56;4914139;28;102358;-67
2021/11/22 07:09:46;;;;;;;;;10.00;8.50;;;;;15.35;50.77;98335.47;4899909;28;102762;-67
2021/11/22 07:12:13;;;;;;;;;8.75;8.00;;;;;15.35;50.79;98334.66;4905508;28;102731;-67
2021/11/22 07:14:41;;;;;;;;;9.25;9.25;;;;;15.35;50.72;98337.38;4905362;28;104076;-67
2021/11/22 07:17:08;;;;;;;;;10.75;8.75;;;;;15.34;50.79;98335.69;4903467;28;103570;-68
2021/11/22 07:19:36;;;;;;;;;12.75;10.00;;;;;15.34;50.62;98339.25;4906271;28;102561;-67
2021/11/22 07:22:06;;;;;;;;;9.50;7.75;;;;;15.33;50.76;98337.59;4909689;28;102696;-67
2021/11/22 07:24:33;;;;;;;;;14.25;10.25;;;;;15.34;50.61;98350.16;4902287;28;108811;-67
2021/11/22 07:27:00;;;;;;;;;7.75;7.25;;;;;15.35;51.33;98342.81;4909103;28;102381;-67
2021/11/22 07:29:28;;;;;;;;;14.50;10.25;;;;;15.34;50.67;98349.31;4904951;28;102608;-67
2021/11/22 07:31:55;;;;;;;;;12.50;10.25;;;;;15.34;50.37;98343.88;4881687;28;104374;-67
2021/11/22 07:34:22;;;;;;;;;12.75;8.50;;;;;15.34;50.75;98349.31;4904337;28;104116;-68
2021/11/22 07:36:49;;;;;;;;;10.00;8.00;;;;;15.34;50.63;98346.59;4900552;28;102681;-67
2021/11/22 07:39:16;;;;;;;;;10.25;10.25;;;;;15.34;50.74;98355.59;4904442;28;102798;-67
2021/11/22 07:41:44;;;;;;;;;10.75;9.00;;;;;15.33;50.43;98353.94;4898468;28;102322;-67
2021/11/22 07:44:11;;;;;;;;;13.00;10.50;;;;;15.34;50.59;98360.22;4892109;28;104122;-67
2021/11/22 07:46:38;;;;;;;;;10.75;8.75;;;;;15.33;50.55;98362.13;4895710;28;102444;-66
2021/11/22 07:49:05;;;;;;;;;12.25;10.50;;;;;15.33;50.67;98364.84;4902150;28;103391;-67
2021/11/22 07:51:33;;;;;;;;;7.00;3.50;;;;;15.34;50.51;98365.66;4906283;28;103911;-67
2021/11/22 07:54:00;;;;;;;;;8.25;7.25;;;;;15.34;50.67;98374.69;4901089;28;104070;-67
2021/11/22 07:56:27;;;;;;;;;9.75;8.75;;;;;15.32;50.48;98368.63;4903361;28;104156;-67
2021/11/22 07:58:54;;;;;;;;;10.50;8.00;;;;;15.33;50.55;98374.91;4905765;28;102552;-67
2021/11/22 08:01:21;;;;;;;;;11.50;8.50;;;;;15.33;50.53;98386.63;4911006;28;102571;-67
2021/11/22 08:03:48;;;;;;;;;13.00;8.75;;;;;15.33;50.51;98381.19;4914491;28;104231;-67
2021/11/22 08:06:16;;;;;;;;;11.00;10.50;;;;;15.34;50.92;98387.47;4910708;28;102502;-67
2021/11/22 08:08:43;;;;;;;;;10.25;8.25;;;;;15.34;50.41;98392.91;4909758;28;102738;-67
2021/11/22 08:13:40;;;;;;;;;11.25;7.25;;;;;15.32;50.59;98389.59;4910912;28;104160;-66
2021/11/22 08:16:08;;;;;;;;;11.50;8.75;;;;;15.33;50.69;98396.69;4910711;28;102448;-66
2021/11/22 08:18:36;;;;;;;;;10.00;8.25;;;;;15.33;50.67;98400.25;4911231;28;102437;-67
2021/11/22 08:21:03;;;;;;;;;9.25;8.00;;;;;15.30;50.63;98405.34;4910135;28;102521;-67
2021/11/22 08:23:31;;;;;;;;;12.75;10.50;;;;;15.29;50.39;98390.91;4910083;28;104099;-67
2021/11/22 08:25:58;;;;;;;;;8.50;8.50;;;;;15.30;50.49;98402.63;4909098;28;102578;-67
2021/11/22 08:28:25;;;;;;;;;12.50;10.50;;;;;15.30;50.41;98403.47;4911806;28;102148;-67
2021/11/22 08:30:52;;;;;;;;;12.75;10.75;;;;;15.32;50.52;98400.47;4911732;28;102640;-67
2021/11/22 08:33:19;;;;;;;;;11.25;10.25;;;;;15.32;50.88;98408.66;4903140;28;103728;-67
2021/11/22 08:35:46;;;;;;;;;10.25;8.25;;;;;15.30;50.48;98408.06;4904167;28;102356;-67
2021/11/22 08:38:17;;;;;;;;;11.00;8.25;;;;;15.31;50.81;98410.53;4914496;28;102533;-67
2021/11/22 08:40:45;;;;;;;;;8.25;8.25;;;;;15.31;50.40;98415.19;4903506;28;102444;-67
2021/11/22 08:43:14;;;;;;;;;11.00;8.25;;;;;15.31;50.31;98416.00;4906605;28;104594;-67
2021/11/22 08:45:44;;;;;;;;;12.00;10.25;;;;;15.32;50.85;98422.28;4907908;28;102332;-67
2021/11/22 08:48:11;;;;;;;;;10.50;8.50;;;;;15.32;50.48;98422.28;4909667;28;105568;-67
2021/11/22 08:50:38;;;;;;;;;10.50;8.50;;;;;15.32;50.58;98430.44;4903270;28;102597;-66
2021/11/22 08:53:05;;;;;;;;;11.00;10.50;;;;;15.33;50.69;98434.84;4908898;28;104325;-67
2021/11/22 08:55:32;;;;;;;;;8.50;7.25;;;;;15.34;50.40;98436.50;4907883;28;102473;-67
2021/11/22 08:57:59;;;;;;;;;11.50;8.00;;;;;15.34;50.71;98433.78;4908197;28;102363;-67
2021/11/22 09:00:29;;;;;;;;;8.00;8.00;;;;;15.34;50.87;98434.59;4908293;28;102690;-67
2021/11/22 09:02:56;;;;;;;;;11.25;8.25;;;;;15.36;50.71;98439.81;4902523;28;104719;-67
2021/11/22 09:05:23;;;;;;;;;11.75;9.50;;;;;15.37;50.66;98441.47;4905703;28;102420;-67
2021/11/22 09:07:50;;;;;;;;;8.00;7.00;;;;;15.39;50.81;98447.53;4907418;28;102870;-67
2021/11/22 09:10:17;;;;;;;;;9.75;8.00;;;;;15.39;50.78;98447.53;4904356;28;103348;-67
2021/11/22 09:12:44;;;;;;;;;10.25;8.50;;;;;15.39;49.69;98448.38;4904655;28;103796;-67
2021/11/22 09:15:12;;;;;;;;;8.00;7.50;;;;;15.40;50.94;98450.00;4901990;28;102498;-67
2021/11/22 09:17:38;;;;;;;;;11.25;11.00;;;;;15.42;50.89;98449.78;4908071;28;102671;-66
2021/11/22 09:20:09;;;;;;;;;8.25;7.00;;;;;15.42;50.46;98456.06;4913068;28;103324;-67
2021/11/22 09:22:36;;;;;;;;;11.50;7.75;;;;;15.43;50.64;98454.16;4901516;28;108767;-67
2021/11/22 09:25:06;;;;;;;;;8.75;8.75;;;;;15.42;50.88;98456.06;4908199;28;102473;-67
2021/11/22 09:27:33;;;;;;;;;9.25;8.00;;;;;15.43;50.79;98454.16;4909243;28;104662;-67
2021/11/22 09:30:00;;;;;;;;;7.00;6.50;;;;;15.44;50.54;98466.72;4907970;28;102254;-67
2021/11/22 09:32:27;;;;;;;;;7.50;7.50;;;;;15.43;50.89;98467.78;4905310;28;104084;-67
2021/11/22 09:34:54;;;;;;;;;9.00;8.00;;;;;15.44;50.65;98474.91;4899233;28;102528;-67
2021/11/22 09:37:21;;;;;;;;;7.00;7.00;;;;;15.44;50.38;98472.19;4903341;28;102474;-67
2021/11/22 09:39:48;;;;;;;;;7.50;6.00;;;;;15.44;50.28;98474.91;4903695;28;105305;-67
2021/11/22 09:42:15;;;;;;;;;7.00;6.50;;;;;15.44;50.69;98480.34;4903281;28;104233;-67
2021/11/22 09:44:42;;;;;;;;;8.25;7.00;;;;;15.45;50.61;98482.00;4910787;28;102484;-67
2021/11/22 09:47:09;;;;;;;;;7.75;6.00;;;;;15.45;50.67;98482.81;4909484;28;102827;-66
2021/11/22 09:49:36;;;;;;;;;7.00;7.00;;;;;15.46;50.83;98483.66;4910227;28;103160;-67
2021/11/22 09:52:03;;;;;;;;;10.50;7.75;;;;;15.46;50.43;98483.66;4893481;28;110408;-68
2021/11/22 09:54:30;;;;;;;;;7.00;6.00;;;;;15.48;50.13;98487.00;4909281;28;102181;-67
2021/11/22 09:56:57;;;;;;;;;7.25;6.25;;;;;15.46;50.50;98487.22;4906842;28;102600;-68
2021/11/22 09:59:24;;;;;;;;;5.25;5.00;;;;;15.46;50.50;98489.94;4904076;28;102660;-67
2021/11/22 10:01:52;;;;;;;;;6.75;6.25;;;;;15.46;50.52;98494.56;4908883;28;104024;-67
2021/11/22 10:04:20;;;;;;;;;5.00;4.00;;;;;15.46;50.74;98489.09;4911258;28;103038;-68
2021/11/22 10:06:54;;;;;;;;;7.75;6.50;;;;;15.46;50.60;98489.09;4910565;28;102474;-68
2021/11/22 10:09:30;;;;;;;;;6.00;6.00;;;;;15.46;50.19;98491.84;4926544;28;102571;-68
2021/11/22 10:12:23;;;;;;;;;6.50;6.50;;;;;15.44;50.56;98488.53;4881516;28;104060;-67
2021/11/22 10:14:52;;;;;;;;;6.75;5.75;;;;;15.46;50.48;98483.66;4906806;28;104183;-67
2021/11/22 10:17:33;;;;;;;;;7.00;7.00;;;;;15.46;50.23;98489.09;4904482;28;102204;-67
2021/11/22 10:20:06;;;;;;;;;6.50;5.50;;;;;15.46;50.13;98491.84;4906228;28;104078;-68
2021/11/22 10:23:04;;;;;;;;;7.50;7.00;;;;;15.46;50.64;98489.09;4899214;28;104261;-68
2021/11/22 10:25:41;;;;;;;;;8.00;7.50;;;;;15.44;50.30;98491.25;4909012;28;102553;-67
2021/11/22 10:28:13;;;;;;;;;5.75;5.75;;;;;15.45;50.18;98492.88;4910412;28;102519;-67
2021/11/22 10:30:45;;;;;;;;;8.25;7.25;;;;;15.47;50.52;98501.66;4911430;28;102617;-66
2021/11/22 10:33:14;;;;;;;;;10.50;6.00;;;;;15.46;50.46;98505.44;4907659;28;104108;-67
2021/11/22 10:35:41;;;;;;;;;6.50;6.00;;;;;15.47;50.13;98496.22;4906996;28;102632;-66
2021/11/22 10:38:15;;;;;;;;;9.75;7.75;;;;;15.46;50.13;98497.28;4914699;28;102760;-67
2021/11/22 10:41:16;;;;;;;;;6.25;6.25;;;;;15.46;50.46;98500.00;4907718;28;102245;-67
2021/11/22 10:43:54;;;;;;;;;6.50;5.75;;;;;15.46;50.28;98500.00;4888560;28;108723;-67
2021/11/22 10:46:35;;;;;;;;;6.25;5.50;;;;;15.45;50.13;98503.78;4905893;28;102545;-67
2021/11/22 10:49:31;;;;;;;;;7.00;5.75;;;;;15.45;50.57;98498.34;4908939;28;102376;-68
2021/11/22 10:52:14;;;;;;;;;5.00;4.75;;;;;15.45;50.16;98503.78;4904910;28;102775;-68
2021/11/22 10:54:59;;;;;;;;;7.00;5.50;;;;;15.45;50.60;98501.91;4897826;28;108841;-67
2021/11/22 10:58:02;;;;;;;;;3.50;3.00;;;;;15.44;50.10;98511.16;4907822;28;102618;-67
2021/11/22 11:00:29;;;;;;;;;6.25;6.00;;;;;15.45;50.08;98506.50;4922126;28;102726;-68
2021/11/22 11:02:57;;;;;;;;;7.50;5.25;;;;;15.45;50.64;98504.63;4908530;28;102548;-67
2021/11/22 11:05:31;;;;;;;;;6.00;5.75;;;;;15.45;50.01;98510.06;4909738;28;104476;-67
2021/11/22 11:08:09;;;;;;;;;5.00;5.00;;;;;15.43;50.66;98504.03;4911687;28;102515;-67
2021/11/22 11:10:37;;;;;;;;;6.00;5.00;;;;;15.43;50.01;98503.22;4926229;28;103146;-67
2021/11/22 11:13:04;;;;;;;;;5.75;5.00;;;;;15.44;50.34;98504.88;4904453;28;102687;-67
2021/11/22 11:15:31;;;;;;;;;6.00;6.00;;;;;15.42;49.86;98507.81;4910485;28;104279;-67
2021/11/22 11:17:58;;;;;;;;;6.50;6.00;;;;;15.42;50.19;98512.44;4905104;28;102409;-67
2021/11/22 11:20:25;;;;;;;;;5.75;5.75;;;;;15.42;50.18;98509.72;4907820;28;102175;-67
2021/11/22 11:22:52;;;;;;;;;6.25;5.25;;;;;15.43;50.55;98511.38;4908840;28;102393;-67
2021/11/22 11:25:21;;;;;;;;;6.25;4.75;;;;;15.42;50.16;98521.44;4911468;28;104052;-67
2021/11/22 11:27:48;;;;;;;;;7.50;6.00;;;;;15.42;50.28;98523.34;4908631;28;102502;-67
2021/11/22 11:30:19;;;;;;;;;7.75;5.75;;;;;15.43;50.40;98511.38;4912468;28;102730;-67